Terminal Aerodrome Forecast
Issued by NWS

Home | Current Version | Previous Version | Text Only | Print | Product List | Glossary On
Versions: 1 2 3 4 5 6 7 8 9 10 11 12 13 14 15 16 17 18 19
824
FTUS43 KTOP 290520
TAFMHK
TAF
KMHK 290520Z 2906/3006 24005KT P6SM SKC
     FM290700 22002KT 6SM MIFG BR SKC
     FM291300 23007KT P6SM SKC
     FM292000 16008KT P6SM SCT150=

USA.gov is the U.S. government's official web portal to all federal, state and local government web resources and services.